< Cyclone 201921 2019 Season
Cyclone 201926 (Ann)
General InformationDetailed Track InformationTrack Information on Google MapsList of All Images || ResourceGoogle EarthGE AnimationAtom FeedGeoJSON
Detalied Best Track Wind (Time Zone = UTC)
Year Month Day Hour Lat. Long. Wind (kt) Gust (kt) Direc. of Major Storm Axis Radius of Major Storm Axis (nm) Radius of Minor Storm Axis (nm) Direc. of Major Gale Axis Radius of Major Gale Axis (nm) Radius of Minor Gale Axis (nm) Image
2019 5 8 00 -10.2 162.1 20 35 symmetric - - symmetric - - Image
2019 5 8 06 -10.5 161.6 20 35 symmetric - - symmetric - - Image
2019 5 8 12 -10.7 161.5 20 35 symmetric - - symmetric - - Image
2019 5 8 18 -10.7 160.8 20 35 symmetric - - symmetric - - Image
2019 5 9 00 -10.8 160.6 20 35 symmetric - - symmetric - - Image
2019 5 9 06 -10.9 160.4 20 35 symmetric - - symmetric - - Image
2019 5 9 12 -11.1 160.2 20 35 symmetric - - symmetric - - Image
2019 5 9 18 -11.9 159.8 20 35 symmetric - - symmetric - - Image
2019 5 10 00 -12.1 159.5 20 35 symmetric - - symmetric - - Image
2019 5 10 06 -12.3 159.2 20 35 symmetric - - symmetric - - Image
2019 5 10 18 -14.6 159.4 25 40 symmetric - - symmetric - - Image
2019 5 11 00 -14.6 159.7 25 40 symmetric - - symmetric - - Image
2019 5 11 06 -15.4 159.7 25 40 symmetric - - symmetric - - Image
2019 5 11 12 -15.5 159.7 30 45 symmetric - - symmetric - - Image
2019 5 11 18 -16.1 159.1 35 50 symmetric - - symmetric - - Image
2019 5 12 00 -16.0 158.7 45 65 symmetric - - symmetric - - Image
2019 5 12 06 -16.2 158.3 45 65 symmetric - - symmetric - - Image
2019 5 12 12 -15.9 157.1 45 65 symmetric - - symmetric - - Image
2019 5 12 18 -15.7 155.7 50 70 symmetric - - symmetric - - Image
2019 5 13 00 -15.3 154.5 50 70 symmetric - - symmetric - - Image
2019 5 13 06 -15.4 153.0 45 65 symmetric - - symmetric - - Image
2019 5 13 12 -15.1 151.5 40 55 symmetric - - symmetric - - Image
2019 5 13 18 -14.9 150.3 40 55 symmetric - - symmetric - - Image
2019 5 14 00 -14.4 149.2 35 50 symmetric - - symmetric - - Image
2019 5 14 06 -14.4 147.6 34.1667 -1 symmetric - - symmetric - - Image
2019 5 14 12 -13.8 146.2 33.3333 -1 symmetric - - symmetric - - Image
2019 5 14 18 -13.0 145.0 32.5 -1 symmetric - - symmetric - - Image
2019 5 15 00 -12.7 143.8 31.6667 -1 symmetric - - symmetric - - Image
2019 5 15 06 -12.6 142.4 30.8333 -1 symmetric - - symmetric - - Image
2019 5 15 12 -12.0 141.0 30 -1 symmetric - - symmetric - - Image
2019 5 15 18 -11.6 139.5 30 -1 symmetric - - symmetric - - Image
2019 5 16 00 -11.0 138.4 30 -1 symmetric - - symmetric - - Image
2019 5 16 06 -11.0 137.0 25 -1 symmetric - - symmetric - - Image
2019 5 16 12 -10.7 136.2 25 -1 symmetric - - symmetric - - Image
2019 5 16 18 -10.0 135.1 25 -1 symmetric - - symmetric - - Image
2019 5 17 00 -9.8 134.0 25 -1 symmetric - - symmetric - - Image
2019 5 17 06 -9.5 132.8 23.75 -1 symmetric - - symmetric - - Image
2019 5 17 12 -8.6 131.6 22.5 -1 symmetric - - symmetric - - Image
2019 5 17 18 -7.8 130.5 21.25 -1 symmetric - - symmetric - - Image
2019 5 18 00 -7.4 129.8 20 -1 symmetric - - symmetric - - Image
2019 5 18 06 -7.3 129.0 20 -1 symmetric - - symmetric - - Image
2019 5 18 12 -6.8 128.1 0 -1 symmetric - - symmetric - - Image
< Cyclone 201921 2019 Season

Help